sensor_id;sensor_type;location;lat;lon;timestamp;temperature;humidity
18105;DHT22;9179;50.968;3.134;2024-01-06T00:00:10;8.10;99.90
18105;DHT22;9179;50.968;3.134;2024-01-06T00:02:37;8.00;99.90
18105;DHT22;9179;50.968;3.134;2024-01-06T00:05:06;8.10;99.90
18105;DHT22;9179;50.968;3.134;2024-01-06T00:07:33;8.10;99.90
18105;DHT22;9179;50.968;3.134;2024-01-06T00:10:00;8.10;99.90
18105;DHT22;9179;50.968;3.134;2024-01-06T00:12:27;8.10;99.90
18105;DHT22;9179;50.968;3.134;2024-01-06T00:14:54;8.10;99.90
18105;DHT22;9179;50.968;3.134;2024-01-06T00:17:21;8.10;99.90
18105;DHT22;9179;50.968;3.134;2024-01-06T00:19:48;8.00;99.90
18105;DHT22;9179;50.968;3.134;2024-01-06T00:22:18;7.90;99.90
18105;DHT22;9179;50.968;3.134;2024-01-06T00:24:45;8.00;99.90
18105;DHT22;9179;50.968;3.134;2024-01-06T00:27:12;8.00;99.90
18105;DHT22;9179;50.968;3.134;2024-01-06T00:29:39;8.10;99.90
18105;DHT22;9179;50.968;3.134;2024-01-06T00:32:06;8.20;99.90
18105;DHT22;9179;50.968;3.134;2024-01-06T00:34:33;8.20;99.90
18105;DHT22;9179;50.968;3.134;2024-01-06T00:37:00;8.20;99.90
18105;DHT22;9179;50.968;3.134;2024-01-06T00:39:29;8.20;99.90
18105;DHT22;9179;50.968;3.134;2024-01-06T00:41:55;8.20;99.90
18105;DHT22;9179;50.968;3.134;2024-01-06T00:44:22;8.10;99.90
18105;DHT22;9179;50.968;3.134;2024-01-06T00:46:49;8.20;99.90
18105;DHT22;9179;50.968;3.134;2024-01-06T00:49:16;8.20;99.90
18105;DHT22;9179;50.968;3.134;2024-01-06T00:51:43;8.20;99.90
18105;DHT22;9179;50.968;3.134;2024-01-06T00:54:10;8.20;99.90
18105;DHT22;9179;50.968;3.134;2024-01-06T00:56:38;8.20;99.90
18105;DHT22;9179;50.968;3.134;2024-01-06T00:59:07;8.10;99.90
18105;DHT22;9179;50.968;3.134;2024-01-06T01:01:34;8.10;99.90
18105;DHT22;9179;50.968;3.134;2024-01-06T01:04:01;8.20;99.90
18105;DHT22;9179;50.968;3.134;2024-01-06T01:06:28;8.20;99.90
18105;DHT22;9179;50.968;3.134;2024-01-06T01:08:55;8.30;99.90
18105;DHT22;9179;50.968;3.134;2024-01-06T01:11:21;8.30;99.90
18105;DHT22;9179;50.968;3.134;2024-01-06T01:13:49;8.20;99.90
18105;DHT22;9179;50.968;3.134;2024-01-06T01:16:16;8.20;99.90
18105;DHT22;9179;50.968;3.134;2024-01-06T01:18:43;8.20;99.90
18105;DHT22;9179;50.968;3.134;2024-01-06T01:21:10;8.30;99.90
18105;DHT22;9179;50.968;3.134;2024-01-06T01:23:37;8.30;99.90
18105;DHT22;9179;50.968;3.134;2024-01-06T01:26:04;8.30;99.90
18105;DHT22;9179;50.968;3.134;2024-01-06T01:28:32;8.10;99.90
18105;DHT22;9179;50.968;3.134;2024-01-06T01:31:00;8.00;99.90
18105;DHT22;9179;50.968;3.134;2024-01-06T01:33:27;8.00;99.90
18105;DHT22;9179;50.968;3.134;2024-01-06T01:35:54;8.00;99.90
18105;DHT22;9179;50.968;3.134;2024-01-06T01:38:21;8.10;99.90
18105;DHT22;9179;50.968;3.134;2024-01-06T01:40:47;8.00;99.90
18105;DHT22;9179;50.968;3.134;2024-01-06T01:43:17;8.00;99.90
18105;DHT22;9179;50.968;3.134;2024-01-06T01:45:45;7.90;99.90
18105;DHT22;9179;50.968;3.134;2024-01-06T01:48:16;8.00;99.90
18105;DHT22;9179;50.968;3.134;2024-01-06T01:50:44;8.00;99.90
18105;DHT22;9179;50.968;3.134;2024-01-06T01:53:11;8.00;99.90
18105;DHT22;9179;50.968;3.134;2024-01-06T01:55:39;8.10;99.90
18105;DHT22;9179;50.968;3.134;2024-01-06T01:58:07;8.00;99.90
18105;DHT22;9179;50.968;3.134;2024-01-06T02:00:34;8.10;99.90
18105;DHT22;9179;50.968;3.134;2024-01-06T02:03:03;8.20;99.90
18105;DHT22;9179;50.968;3.134;2024-01-06T02:05:32;8.30;99.90
18105;DHT22;9179;50.968;3.134;2024-01-06T02:07:59;8.20;99.90
18105;DHT22;9179;50.968;3.134;2024-01-06T02:10:26;8.30;99.90
18105;DHT22;9179;50.968;3.134;2024-01-06T02:12:53;8.40;99.90
18105;DHT22;9179;50.968;3.134;2024-01-06T02:15:20;8.50;99.90
18105;DHT22;9179;50.968;3.134;2024-01-06T02:17:47;8.50;99.90
18105;DHT22;9179;50.968;3.134;2024-01-06T02:20:14;8.50;99.90
18105;DHT22;9179;50.968;3.134;2024-01-06T02:22:46;8.50;99.90
18105;DHT22;9179;50.968;3.134;2024-01-06T02:25:13;8.50;99.90
18105;DHT22;9179;50.968;3.134;2024-01-06T02:27:40;8.60;99.90
18105;DHT22;9179;50.968;3.134;2024-01-06T02:30:08;8.50;99.90
18105;DHT22;9179;50.968;3.134;2024-01-06T02:32:35;8.50;99.90
18105;DHT22;9179;50.968;3.134;2024-01-06T02:35:02;8.40;99.90
18105;DHT22;9179;50.968;3.134;2024-01-06T02:37:29;8.40;99.90
18105;DHT22;9179;50.968;3.134;2024-01-06T02:39:58;8.40;99.90
18105;DHT22;9179;50.968;3.134;2024-01-06T02:42:24;8.30;99.90
18105;DHT22;9179;50.968;3.134;2024-01-06T02:44:51;8.00;99.90
18105;DHT22;9179;50.968;3.134;2024-01-06T02:47:18;7.90;99.90
18105;DHT22;9179;50.968;3.134;2024-01-06T02:49:45;7.90;99.90
18105;DHT22;9179;50.968;3.134;2024-01-06T02:52:12;7.80;99.90
18105;DHT22;9179;50.968;3.134;2024-01-06T02:54:39;7.90;99.90
18105;DHT22;9179;50.968;3.134;2024-01-06T02:57:07;7.90;99.90
18105;DHT22;9179;50.968;3.134;2024-01-06T02:59:34;8.00;99.90
18105;DHT22;9179;50.968;3.134;2024-01-06T03:02:02;8.00;99.90
18105;DHT22;9179;50.968;3.134;2024-01-06T03:04:29;8.00;99.90
18105;DHT22;9179;50.968;3.134;2024-01-06T03:06:56;7.90;99.90
18105;DHT22;9179;50.968;3.134;2024-01-06T03:09:22;7.90;99.90
18105;DHT22;9179;50.968;3.134;2024-01-06T03:11:49;7.80;99.90
18105;DHT22;9179;50.968;3.134;2024-01-06T03:14:18;7.80;99.90
18105;DHT22;9179;50.968;3.134;2024-01-06T03:16:45;7.80;99.90
18105;DHT22;9179;50.968;3.134;2024-01-06T03:19:12;7.90;99.90
18105;DHT22;9179;50.968;3.134;2024-01-06T03:21:38;7.80;99.90
18105;DHT22;9179;50.968;3.134;2024-01-06T03:24:07;7.90;99.90
18105;DHT22;9179;50.968;3.134;2024-01-06T03:26:34;7.90;99.90
18105;DHT22;9179;50.968;3.134;2024-01-06T03:29:01;8.00;99.90
18105;DHT22;9179;50.968;3.134;2024-01-06T03:31:30;8.00;99.90
18105;DHT22;9179;50.968;3.134;2024-01-06T03:33:57;8.00;99.90
18105;DHT22;9179;50.968;3.134;2024-01-06T03:36:24;7.90;99.90
18105;DHT22;9179;50.968;3.134;2024-01-06T03:38:51;7.90;99.90
18105;DHT22;9179;50.968;3.134;2024-01-06T03:41:18;8.00;99.90
18105;DHT22;9179;50.968;3.134;2024-01-06T03:43:45;8.10;99.90
18105;DHT22;9179;50.968;3.134;2024-01-06T03:46:12;8.20;99.90
18105;DHT22;9179;50.968;3.134;2024-01-06T03:48:40;8.10;99.90
18105;DHT22;9179;50.968;3.134;2024-01-06T03:51:07;8.10;99.90
18105;DHT22;9179;50.968;3.134;2024-01-06T03:53:35;8.10;99.90
18105;DHT22;9179;50.968;3.134;2024-01-06T03:56:04;8.00;99.90
18105;DHT22;9179;50.968;3.134;2024-01-06T03:58:31;8.10;99.90
18105;DHT22;9179;50.968;3.134;2024-01-06T04:00:58;8.20;99.90
18105;DHT22;9179;50.968;3.134;2024-01-06T04:03:25;8.20;99.90
18105;DHT22;9179;50.968;3.134;2024-01-06T04:05:53;8.10;99.90
18105;DHT22;9179;50.968;3.134;2024-01-06T04:08:20;8.20;99.90
18105;DHT22;9179;50.968;3.134;2024-01-06T04:10:47;8.20;99.90
18105;DHT22;9179;50.968;3.134;2024-01-06T04:13:15;8.10;99.90
18105;DHT22;9179;50.968;3.134;2024-01-06T04:15:42;8.10;99.90
18105;DHT22;9179;50.968;3.134;2024-01-06T04:18:09;8.20;99.90
18105;DHT22;9179;50.968;3.134;2024-01-06T04:20:36;8.10;99.90
18105;DHT22;9179;50.968;3.134;2024-01-06T04:23:04;8.00;99.90
18105;DHT22;9179;50.968;3.134;2024-01-06T04:25:31;8.00;99.90
18105;DHT22;9179;50.968;3.134;2024-01-06T04:27:58;8.10;99.90
18105;DHT22;9179;50.968;3.134;2024-01-06T04:30:25;8.00;99.90
18105;DHT22;9179;50.968;3.134;2024-01-06T04:32:52;7.90;99.90
18105;DHT22;9179;50.968;3.134;2024-01-06T04:35:20;8.00;99.90
18105;DHT22;9179;50.968;3.134;2024-01-06T04:37:47;7.90;99.90
18105;DHT22;9179;50.968;3.134;2024-01-06T04:40:16;8.10;99.90
18105;DHT22;9179;50.968;3.134;2024-01-06T04:42:43;8.20;99.90
18105;DHT22;9179;50.968;3.134;2024-01-06T04:45:10;8.10;99.90
18105;DHT22;9179;50.968;3.134;2024-01-06T04:47:37;8.00;99.90
18105;DHT22;9179;50.968;3.134;2024-01-06T04:50:05;8.00;99.90
18105;DHT22;9179;50.968;3.134;2024-01-06T04:52:32;8.00;99.90
18105;DHT22;9179;50.968;3.134;2024-01-06T04:54:59;8.00;99.90
18105;DHT22;9179;50.968;3.134;2024-01-06T04:57:28;8.10;99.90
18105;DHT22;9179;50.968;3.134;2024-01-06T04:59:55;8.20;99.90
18105;DHT22;9179;50.968;3.134;2024-01-06T05:02:22;8.20;99.90
18105;DHT22;9179;50.968;3.134;2024-01-06T05:04:49;8.20;99.90
18105;DHT22;9179;50.968;3.134;2024-01-06T05:07:16;8.20;99.90
18105;DHT22;9179;50.968;3.134;2024-01-06T05:09:43;8.20;99.90
18105;DHT22;9179;50.968;3.134;2024-01-06T05:12:09;8.20;99.90
18105;DHT22;9179;50.968;3.134;2024-01-06T05:14:38;8.30;99.90
18105;DHT22;9179;50.968;3.134;2024-01-06T05:17:05;8.40;99.90
18105;DHT22;9179;50.968;3.134;2024-01-06T05:19:32;8.40;99.90
18105;DHT22;9179;50.968;3.134;2024-01-06T05:21:59;8.40;99.90
18105;DHT22;9179;50.968;3.134;2024-01-06T05:24:26;8.60;99.90
18105;DHT22;9179;50.968;3.134;2024-01-06T05:26:53;8.60;99.90
18105;DHT22;9179;50.968;3.134;2024-01-06T05:29:19;8.50;99.90
18105;DHT22;9179;50.968;3.134;2024-01-06T05:31:47;8.50;99.90
18105;DHT22;9179;50.968;3.134;2024-01-06T05:34:14;8.40;99.90
18105;DHT22;9179;50.968;3.134;2024-01-06T05:36:41;8.50;99.90
18105;DHT22;9179;50.968;3.134;2024-01-06T05:39:08;8.60;99.90
18105;DHT22;9179;50.968;3.134;2024-01-06T05:41:38;8.60;99.90
18105;DHT22;9179;50.968;3.134;2024-01-06T05:44:05;8.60;99.90
18105;DHT22;9179;50.968;3.134;2024-01-06T05:46:34;8.50;99.90
18105;DHT22;9179;50.968;3.134;2024-01-06T05:49:02;8.50;99.90
18105;DHT22;9179;50.968;3.134;2024-01-06T05:51:30;8.50;99.90
18105;DHT22;9179;50.968;3.134;2024-01-06T05:53:57;8.50;99.90
18105;DHT22;9179;50.968;3.134;2024-01-06T05:56:24;8.50;99.90
18105;DHT22;9179;50.968;3.134;2024-01-06T05:58:52;8.50;99.90
18105;DHT22;9179;50.968;3.134;2024-01-06T06:01:19;8.40;99.90
18105;DHT22;9179;50.968;3.134;2024-01-06T06:03:47;8.50;99.90
18105;DHT22;9179;50.968;3.134;2024-01-06T06:06:17;8.50;99.90
18105;DHT22;9179;50.968;3.134;2024-01-06T06:08:44;8.40;99.90
18105;DHT22;9179;50.968;3.134;2024-01-06T06:11:11;8.40;99.90
18105;DHT22;9179;50.968;3.134;2024-01-06T06:13:38;8.40;99.90
18105;DHT22;9179;50.968;3.134;2024-01-06T06:16:06;8.50;99.90
18105;DHT22;9179;50.968;3.134;2024-01-06T06:18:33;8.30;99.90
18105;DHT22;9179;50.968;3.134;2024-01-06T06:21:00;8.40;99.90
18105;DHT22;9179;50.968;3.134;2024-01-06T06:23:30;8.50;99.90
18105;DHT22;9179;50.968;3.134;2024-01-06T06:25:57;8.50;99.90
18105;DHT22;9179;50.968;3.134;2024-01-06T06:28:25;8.50;99.90
18105;DHT22;9179;50.968;3.134;2024-01-06T06:30:52;8.70;99.90
18105;DHT22;9179;50.968;3.134;2024-01-06T06:33:18;8.70;99.90
18105;DHT22;9179;50.968;3.134;2024-01-06T06:35:45;8.70;99.90
18105;DHT22;9179;50.968;3.134;2024-01-06T06:38:12;8.60;99.90
18105;DHT22;9179;50.968;3.134;2024-01-06T06:40:43;8.60;99.90
18105;DHT22;9179;50.968;3.134;2024-01-06T06:43:10;8.70;99.90
18105;DHT22;9179;50.968;3.134;2024-01-06T06:45:37;8.70;99.90
18105;DHT22;9179;50.968;3.134;2024-01-06T06:48:04;8.70;99.90
18105;DHT22;9179;50.968;3.134;2024-01-06T06:50:32;8.70;99.90
18105;DHT22;9179;50.968;3.134;2024-01-06T06:52:59;8.60;99.90
18105;DHT22;9179;50.968;3.134;2024-01-06T06:55:27;8.40;99.90
18105;DHT22;9179;50.968;3.134;2024-01-06T06:57:56;8.30;99.90
18105;DHT22;9179;50.968;3.134;2024-01-06T07:00:23;8.20;99.90
18105;DHT22;9179;50.968;3.134;2024-01-06T07:02:49;8.10;99.90
18105;DHT22;9179;50.968;3.134;2024-01-06T07:05:16;8.00;99.90
18105;DHT22;9179;50.968;3.134;2024-01-06T07:07:43;8.00;99.90
18105;DHT22;9179;50.968;3.134;2024-01-06T07:10:12;7.90;99.90
18105;DHT22;9179;50.968;3.134;2024-01-06T07:12:39;7.90;99.90
18105;DHT22;9179;50.968;3.134;2024-01-06T07:15:08;7.80;99.90
18105;DHT22;9179;50.968;3.134;2024-01-06T07:17:35;7.90;99.90
18105;DHT22;9179;50.968;3.134;2024-01-06T07:20:04;7.90;99.90
18105;DHT22;9179;50.968;3.134;2024-01-06T07:22:32;8.00;99.90
18105;DHT22;9179;50.968;3.134;2024-01-06T07:25:00;8.00;99.90
18105;DHT22;9179;50.968;3.134;2024-01-06T07:27:27;8.00;99.90
18105;DHT22;9179;50.968;3.134;2024-01-06T07:29:54;8.00;99.90
18105;DHT22;9179;50.968;3.134;2024-01-06T07:32:23;8.00;99.90
18105;DHT22;9179;50.968;3.134;2024-01-06T07:34:50;8.00;99.90
18105;DHT22;9179;50.968;3.134;2024-01-06T07:37:17;8.00;99.90
18105;DHT22;9179;50.968;3.134;2024-01-06T07:39:44;8.00;99.90
18105;DHT22;9179;50.968;3.134;2024-01-06T07:42:11;7.90;99.90
18105;DHT22;9179;50.968;3.134;2024-01-06T07:44:38;7.80;99.90
18105;DHT22;9179;50.968;3.134;2024-01-06T07:47:05;7.80;99.90
18105;DHT22;9179;50.968;3.134;2024-01-06T07:49:33;7.70;99.90
18105;DHT22;9179;50.968;3.134;2024-01-06T07:52:00;7.70;99.90
18105;DHT22;9179;50.968;3.134;2024-01-06T07:54:27;7.70;99.90
18105;DHT22;9179;50.968;3.134;2024-01-06T07:56:54;7.60;99.90
18105;DHT22;9179;50.968;3.134;2024-01-06T07:59:22;7.70;99.90
18105;DHT22;9179;50.968;3.134;2024-01-06T08:01:49;7.80;99.90
18105;DHT22;9179;50.968;3.134;2024-01-06T08:04:16;7.80;99.90
18105;DHT22;9179;50.968;3.134;2024-01-06T08:06:44;7.80;99.90
18105;DHT22;9179;50.968;3.134;2024-01-06T08:09:11;7.80;99.90
18105;DHT22;9179;50.968;3.134;2024-01-06T08:11:38;7.80;99.90
18105;DHT22;9179;50.968;3.134;2024-01-06T08:14:05;7.70;99.90
18105;DHT22;9179;50.968;3.134;2024-01-06T08:16:32;7.80;99.90
18105;DHT22;9179;50.968;3.134;2024-01-06T08:18:59;7.70;99.90
18105;DHT22;9179;50.968;3.134;2024-01-06T08:21:26;7.80;99.90
18105;DHT22;9179;50.968;3.134;2024-01-06T08:23:55;7.80;99.90
18105;DHT22;9179;50.968;3.134;2024-01-06T08:26:22;7.80;99.90
18105;DHT22;9179;50.968;3.134;2024-01-06T08:28:49;7.90;99.90
18105;DHT22;9179;50.968;3.134;2024-01-06T08:31:16;8.00;99.90
18105;DHT22;9179;50.968;3.134;2024-01-06T08:33:43;8.00;99.90
18105;DHT22;9179;50.968;3.134;2024-01-06T08:36:10;8.00;99.90
18105;DHT22;9179;50.968;3.134;2024-01-06T08:38:38;8.10;99.90
18105;DHT22;9179;50.968;3.134;2024-01-06T08:41:06;8.10;99.90
18105;DHT22;9179;50.968;3.134;2024-01-06T08:43:33;8.10;99.90
18105;DHT22;9179;50.968;3.134;2024-01-06T08:46:00;8.20;99.90
18105;DHT22;9179;50.968;3.134;2024-01-06T08:48:27;8.30;99.90
18105;DHT22;9179;50.968;3.134;2024-01-06T08:50:55;8.40;99.90
18105;DHT22;9179;50.968;3.134;2024-01-06T08:53:22;8.40;99.90
18105;DHT22;9179;50.968;3.134;2024-01-06T08:55:49;8.50;99.90
18105;DHT22;9179;50.968;3.134;2024-01-06T08:58:17;8.50;99.90
18105;DHT22;9179;50.968;3.134;2024-01-06T09:00:44;8.50;99.90
18105;DHT22;9179;50.968;3.134;2024-01-06T09:03:11;8.50;99.90
18105;DHT22;9179;50.968;3.134;2024-01-06T09:05:39;8.50;99.90
18105;DHT22;9179;50.968;3.134;2024-01-06T09:08:06;8.60;99.90
18105;DHT22;9179;50.968;3.134;2024-01-06T09:10:33;8.70;99.90
18105;DHT22;9179;50.968;3.134;2024-01-06T09:13:00;8.80;99.90
18105;DHT22;9179;50.968;3.134;2024-01-06T09:15:29;8.80;99.90
18105;DHT22;9179;50.968;3.134;2024-01-06T09:17:56;8.70;99.90
18105;DHT22;9179;50.968;3.134;2024-01-06T09:20:22;8.60;99.90
18105;DHT22;9179;50.968;3.134;2024-01-06T09:22:49;8.70;99.90
18105;DHT22;9179;50.968;3.134;2024-01-06T09:25:17;8.70;99.90
18105;DHT22;9179;50.968;3.134;2024-01-06T09:27:44;8.70;99.90
18105;DHT22;9179;50.968;3.134;2024-01-06T09:30:11;8.70;99.90
18105;DHT22;9179;50.968;3.134;2024-01-06T09:32:39;8.40;99.90
18105;DHT22;9179;50.968;3.134;2024-01-06T09:35:07;8.60;99.90
18105;DHT22;9179;50.968;3.134;2024-01-06T09:37:34;8.80;99.90
18105;DHT22;9179;50.968;3.134;2024-01-06T09:40:01;8.90;99.90
18105;DHT22;9179;50.968;3.134;2024-01-06T09:42:28;8.90;99.90
18105;DHT22;9179;50.968;3.134;2024-01-06T09:44:55;8.80;99.90
18105;DHT22;9179;50.968;3.134;2024-01-06T09:47:22;8.80;99.90
18105;DHT22;9179;50.968;3.134;2024-01-06T09:49:52;8.50;99.90
18105;DHT22;9179;50.968;3.134;2024-01-06T09:52:22;8.50;99.90
18105;DHT22;9179;50.968;3.134;2024-01-06T09:54:52;8.60;99.90
18105;DHT22;9179;50.968;3.134;2024-01-06T09:57:20;8.40;99.90
18105;DHT22;9179;50.968;3.134;2024-01-06T09:59:47;8.30;99.90
18105;DHT22;9179;50.968;3.134;2024-01-06T10:02:16;8.30;99.90
18105;DHT22;9179;50.968;3.134;2024-01-06T10:04:43;8.30;99.90
18105;DHT22;9179;50.968;3.134;2024-01-06T10:07:12;8.50;99.90
18105;DHT22;9179;50.968;3.134;2024-01-06T10:09:40;8.60;99.90
18105;DHT22;9179;50.968;3.134;2024-01-06T10:12:08;8.60;99.90
18105;DHT22;9179;50.968;3.134;2024-01-06T10:14:35;8.80;99.90
18105;DHT22;9179;50.968;3.134;2024-01-06T10:17:06;8.90;99.90
18105;DHT22;9179;50.968;3.134;2024-01-06T10:19:33;8.90;99.90
18105;DHT22;9179;50.968;3.134;2024-01-06T10:22:01;8.80;99.90
18105;DHT22;9179;50.968;3.134;2024-01-06T10:24:29;8.80;99.90
18105;DHT22;9179;50.968;3.134;2024-01-06T10:26:57;8.80;99.90
18105;DHT22;9179;50.968;3.134;2024-01-06T10:29:25;8.90;99.90
18105;DHT22;9179;50.968;3.134;2024-01-06T10:31:53;8.80;99.90
18105;DHT22;9179;50.968;3.134;2024-01-06T10:34:21;8.80;99.90
18105;DHT22;9179;50.968;3.134;2024-01-06T10:36:49;9.00;99.90
18105;DHT22;9179;50.968;3.134;2024-01-06T10:39:17;9.00;99.90
18105;DHT22;9179;50.968;3.134;2024-01-06T10:41:46;9.10;99.90
18105;DHT22;9179;50.968;3.134;2024-01-06T10:44:15;9.00;99.90
18105;DHT22;9179;50.968;3.134;2024-01-06T10:46:44;8.90;99.90
18105;DHT22;9179;50.968;3.134;2024-01-06T10:49:11;8.90;99.90
18105;DHT22;9179;50.968;3.134;2024-01-06T10:51:39;8.90;99.90
18105;DHT22;9179;50.968;3.134;2024-01-06T10:54:06;8.90;99.90
18105;DHT22;9179;50.968;3.134;2024-01-06T10:56:37;8.90;99.90
18105;DHT22;9179;50.968;3.134;2024-01-06T10:59:05;9.00;99.90
18105;DHT22;9179;50.968;3.134;2024-01-06T11:01:34;9.00;99.90
18105;DHT22;9179;50.968;3.134;2024-01-06T11:04:02;8.80;99.90
18105;DHT22;9179;50.968;3.134;2024-01-06T11:06:32;8.90;99.90
18105;DHT22;9179;50.968;3.134;2024-01-06T11:09:04;8.80;99.90
18105;DHT22;9179;50.968;3.134;2024-01-06T11:11:35;8.80;99.90
18105;DHT22;9179;50.968;3.134;2024-01-06T11:14:21;8.60;99.90
18105;DHT22;9179;50.968;3.134;2024-01-06T11:16:48;8.90;99.90
18105;DHT22;9179;50.968;3.134;2024-01-06T11:19:44;9.30;99.90
18105;DHT22;9179;50.968;3.134;2024-01-06T11:22:23;9.60;99.90
18105;DHT22;9179;50.968;3.134;2024-01-06T11:24:51;9.60;99.90
18105;DHT22;9179;50.968;3.134;2024-01-06T11:27:19;9.50;99.90
18105;DHT22;9179;50.968;3.134;2024-01-06T11:29:47;9.50;99.90
18105;DHT22;9179;50.968;3.134;2024-01-06T11:32:19;9.40;99.90
18105;DHT22;9179;50.968;3.134;2024-01-06T11:34:50;9.70;99.90
18105;DHT22;9179;50.968;3.134;2024-01-06T11:37:21;9.80;99.90
18105;DHT22;9179;50.968;3.134;2024-01-06T11:39:50;9.90;99.90
18105;DHT22;9179;50.968;3.134;2024-01-06T11:42:18;9.80;99.90
18105;DHT22;9179;50.968;3.134;2024-01-06T11:44:51;9.40;99.90
18105;DHT22;9179;50.968;3.134;2024-01-06T11:47:18;9.20;99.90
18105;DHT22;9179;50.968;3.134;2024-01-06T11:49:53;9.10;99.90
18105;DHT22;9179;50.968;3.134;2024-01-06T11:52:21;8.90;99.90
18105;DHT22;9179;50.968;3.134;2024-01-06T11:54:48;8.70;99.90
18105;DHT22;9179;50.968;3.134;2024-01-06T11:57:15;9.00;99.90
18105;DHT22;9179;50.968;3.134;2024-01-06T11:59:42;9.50;99.90
18105;DHT22;9179;50.968;3.134;2024-01-06T12:02:12;9.80;99.90
18105;DHT22;9179;50.968;3.134;2024-01-06T12:04:39;10.00;99.90
18105;DHT22;9179;50.968;3.134;2024-01-06T12:07:08;10.00;99.90
18105;DHT22;9179;50.968;3.134;2024-01-06T12:09:35;9.50;99.90
18105;DHT22;9179;50.968;3.134;2024-01-06T12:12:03;9.00;99.90
18105;DHT22;9179;50.968;3.134;2024-01-06T12:14:31;8.90;99.90
18105;DHT22;9179;50.968;3.134;2024-01-06T12:16:58;9.20;99.90
18105;DHT22;9179;50.968;3.134;2024-01-06T12:19:29;9.30;99.90
18105;DHT22;9179;50.968;3.134;2024-01-06T12:21:57;9.30;99.90
18105;DHT22;9179;50.968;3.134;2024-01-06T12:24:26;9.20;99.90
18105;DHT22;9179;50.968;3.134;2024-01-06T12:26:55;9.20;99.90
18105;DHT22;9179;50.968;3.134;2024-01-06T12:29:22;9.10;99.90
18105;DHT22;9179;50.968;3.134;2024-01-06T12:31:49;9.30;99.90
18105;DHT22;9179;50.968;3.134;2024-01-06T12:34:16;9.30;99.90
18105;DHT22;9179;50.968;3.134;2024-01-06T12:36:45;9.30;99.90
18105;DHT22;9179;50.968;3.134;2024-01-06T12:39:12;9.30;99.90
18105;DHT22;9179;50.968;3.134;2024-01-06T12:41:40;9.50;99.90
18105;DHT22;9179;50.968;3.134;2024-01-06T12:44:07;9.90;99.90
18105;DHT22;9179;50.968;3.134;2024-01-06T12:46:35;10.00;99.90
18105;DHT22;9179;50.968;3.134;2024-01-06T12:49:02;10.10;99.90
18105;DHT22;9179;50.968;3.134;2024-01-06T12:51:29;10.10;99.90
18105;DHT22;9179;50.968;3.134;2024-01-06T12:53:57;10.00;99.90
18105;DHT22;9179;50.968;3.134;2024-01-06T12:56:24;9.80;99.90
18105;DHT22;9179;50.968;3.134;2024-01-06T12:58:52;9.60;99.90
18105;DHT22;9179;50.968;3.134;2024-01-06T13:01:19;9.40;99.90
18105;DHT22;9179;50.968;3.134;2024-01-06T13:03:46;9.30;99.90
18105;DHT22;9179;50.968;3.134;2024-01-06T13:06:13;9.10;99.90
18105;DHT22;9179;50.968;3.134;2024-01-06T13:08:41;9.00;99.90
18105;DHT22;9179;50.968;3.134;2024-01-06T13:11:10;8.90;99.90
18105;DHT22;9179;50.968;3.134;2024-01-06T13:13:37;8.80;99.90
18105;DHT22;9179;50.968;3.134;2024-01-06T13:16:04;8.70;99.90
18105;DHT22;9179;50.968;3.134;2024-01-06T13:18:31;8.80;99.90
18105;DHT22;9179;50.968;3.134;2024-01-06T13:20:58;8.80;99.90
18105;DHT22;9179;50.968;3.134;2024-01-06T13:23:25;8.80;99.90
18105;DHT22;9179;50.968;3.134;2024-01-06T13:25:52;8.80;99.90
18105;DHT22;9179;50.968;3.134;2024-01-06T13:28:21;8.90;99.90
18105;DHT22;9179;50.968;3.134;2024-01-06T13:30:49;9.10;99.90
18105;DHT22;9179;50.968;3.134;2024-01-06T13:33:16;9.10;99.90
18105;DHT22;9179;50.968;3.134;2024-01-06T13:35:43;9.10;99.90
18105;DHT22;9179;50.968;3.134;2024-01-06T13:38:10;9.30;99.90
18105;DHT22;9179;50.968;3.134;2024-01-06T13:40:37;9.60;99.90
18105;DHT22;9179;50.968;3.134;2024-01-06T13:43:04;9.80;99.90
18105;DHT22;9179;50.968;3.134;2024-01-06T13:45:35;9.80;99.90
18105;DHT22;9179;50.968;3.134;2024-01-06T13:48:03;9.80;99.90
18105;DHT22;9179;50.968;3.134;2024-01-06T13:50:30;9.80;99.90
18105;DHT22;9179;50.968;3.134;2024-01-06T13:52:58;9.70;99.90
18105;DHT22;9179;50.968;3.134;2024-01-06T13:55:25;9.20;99.90
18105;DHT22;9179;50.968;3.134;2024-01-06T13:57:52;8.70;99.90
18105;DHT22;9179;50.968;3.134;2024-01-06T14:00:20;8.20;99.90
18105;DHT22;9179;50.968;3.134;2024-01-06T14:02:49;7.80;99.90
18105;DHT22;9179;50.968;3.134;2024-01-06T14:05:16;7.80;99.90
18105;DHT22;9179;50.968;3.134;2024-01-06T14:07:44;7.90;99.90
18105;DHT22;9179;50.968;3.134;2024-01-06T14:10:14;8.10;99.90
18105;DHT22;9179;50.968;3.134;2024-01-06T14:12:41;8.20;99.90
18105;DHT22;9179;50.968;3.134;2024-01-06T14:15:09;8.30;99.90
18105;DHT22;9179;50.968;3.134;2024-01-06T14:17:36;8.50;99.90
18105;DHT22;9179;50.968;3.134;2024-01-06T14:20:07;8.40;99.90
18105;DHT22;9179;50.968;3.134;2024-01-06T14:22:35;8.50;99.90
18105;DHT22;9179;50.968;3.134;2024-01-06T14:25:03;8.40;99.90
18105;DHT22;9179;50.968;3.134;2024-01-06T14:27:30;8.30;99.90
18105;DHT22;9179;50.968;3.134;2024-01-06T14:29:57;8.30;99.90
18105;DHT22;9179;50.968;3.134;2024-01-06T14:32:24;8.00;99.90
18105;DHT22;9179;50.968;3.134;2024-01-06T14:34:51;7.80;99.90
18105;DHT22;9179;50.968;3.134;2024-01-06T14:37:29;7.80;99.90
18105;DHT22;9179;50.968;3.134;2024-01-06T14:39:56;7.90;99.90
18105;DHT22;9179;50.968;3.134;2024-01-06T14:42:22;7.80;99.90
18105;DHT22;9179;50.968;3.134;2024-01-06T14:44:49;7.80;99.90
18105;DHT22;9179;50.968;3.134;2024-01-06T14:47:16;7.70;99.90
18105;DHT22;9179;50.968;3.134;2024-01-06T14:49:43;7.70;99.90
18105;DHT22;9179;50.968;3.134;2024-01-06T14:52:10;7.60;99.90
18105;DHT22;9179;50.968;3.134;2024-01-06T14:54:38;7.50;99.90
18105;DHT22;9179;50.968;3.134;2024-01-06T14:57:05;7.50;99.90
18105;DHT22;9179;50.968;3.134;2024-01-06T14:59:33;7.60;99.90
18105;DHT22;9179;50.968;3.134;2024-01-06T15:02:02;7.50;99.90
18105;DHT22;9179;50.968;3.134;2024-01-06T15:04:29;7.50;99.90
18105;DHT22;9179;50.968;3.134;2024-01-06T15:06:56;7.50;99.90
18105;DHT22;9179;50.968;3.134;2024-01-06T15:09:23;7.60;99.90
18105;DHT22;9179;50.968;3.134;2024-01-06T15:11:53;7.70;99.90
18105;DHT22;9179;50.968;3.134;2024-01-06T15:14:20;7.70;99.90
18105;DHT22;9179;50.968;3.134;2024-01-06T15:16:47;7.70;99.90
18105;DHT22;9179;50.968;3.134;2024-01-06T15:19:14;7.50;99.90
18105;DHT22;9179;50.968;3.134;2024-01-06T15:21:41;7.40;99.90
18105;DHT22;9179;50.968;3.134;2024-01-06T15:24:08;7.30;99.90
18105;DHT22;9179;50.968;3.134;2024-01-06T15:26:35;7.10;99.90
18105;DHT22;9179;50.968;3.134;2024-01-06T15:29:04;7.00;99.90
18105;DHT22;9179;50.968;3.134;2024-01-06T15:31:31;7.00;99.90
18105;DHT22;9179;50.968;3.134;2024-01-06T15:33:58;6.90;99.90
18105;DHT22;9179;50.968;3.134;2024-01-06T15:36:25;6.90;99.90
18105;DHT22;9179;50.968;3.134;2024-01-06T15:38:52;6.90;99.90
18105;DHT22;9179;50.968;3.134;2024-01-06T15:41:19;6.90;99.90
18105;DHT22;9179;50.968;3.134;2024-01-06T15:43:46;6.90;99.90
18105;DHT22;9179;50.968;3.134;2024-01-06T15:46:14;7.00;99.90
18105;DHT22;9179;50.968;3.134;2024-01-06T15:48:42;7.00;99.90
18105;DHT22;9179;50.968;3.134;2024-01-06T15:51:10;7.10;99.90
18105;DHT22;9179;50.968;3.134;2024-01-06T15:53:37;7.10;99.90
18105;DHT22;9179;50.968;3.134;2024-01-06T15:56:04;7.00;99.90
18105;DHT22;9179;50.968;3.134;2024-01-06T15:58:31;7.00;99.90
18105;DHT22;9179;50.968;3.134;2024-01-06T16:00:58;6.90;99.90
18105;DHT22;9179;50.968;3.134;2024-01-06T16:03:26;7.00;99.90